createdAt,value
2023-02-28T00:00:27.793Z,0.90
2023-02-28T00:02:54.484Z,1.15
2023-02-28T00:05:23.085Z,1.20
2023-02-28T00:07:49.959Z,1.42
2023-02-28T00:10:22.103Z,1.30
2023-02-28T00:12:49.791Z,1.20
2023-02-28T00:15:16.466Z,1.60
2023-02-28T00:17:43.445Z,1.02
2023-02-28T00:20:11.015Z,1.27
2023-02-28T00:22:41.851Z,1.38
2023-02-28T00:25:09.060Z,1.23
2023-02-28T00:27:36.457Z,1.20
2023-02-28T00:30:03.420Z,1.30
2023-02-28T00:32:30.573Z,1.35
2023-02-28T00:34:57.315Z,1.10
2023-02-28T00:37:25.353Z,1.20
2023-02-28T00:39:52.119Z,1.20
2023-02-28T00:42:18.815Z,1.27
2023-02-28T00:44:45.483Z,1.00
2023-02-28T00:47:12.140Z,1.20
2023-02-28T00:49:38.944Z,1.00
2023-02-28T00:52:05.606Z,1.60
2023-02-28T00:54:32.254Z,1.40
2023-02-28T00:56:59.180Z,1.17
2023-02-28T00:59:26.189Z,1.05
2023-02-28T01:01:52.984Z,1.20
2023-02-28T01:04:19.696Z,1.00
2023-02-28T01:06:46.390Z,1.20
2023-02-28T01:09:13.114Z,1.30
2023-02-28T01:11:41.644Z,1.15
2023-02-28T01:14:09.275Z,1.10
2023-02-28T01:16:35.925Z,1.20
2023-02-28T01:19:02.690Z,0.90
2023-02-28T01:21:30.874Z,0.98
2023-02-28T01:23:58.754Z,1.25
2023-02-28T01:26:26.848Z,1.27
2023-02-28T01:28:53.661Z,1.08
2023-02-28T01:31:20.705Z,1.17
2023-02-28T01:33:47.550Z,1.08
2023-02-28T01:36:24.635Z,1.00
2023-02-28T01:38:51.700Z,1.25
2023-02-28T01:41:23.760Z,1.05
2023-02-28T01:43:50.430Z,1.38
2023-02-28T01:46:17.162Z,1.10
2023-02-28T01:48:50.171Z,1.02
2023-02-28T01:51:21.191Z,1.10
2023-02-28T01:53:50.429Z,1.17
2023-02-28T01:56:21.440Z,1.13
2023-02-28T01:58:49.632Z,0.90
2023-02-28T02:01:22.471Z,1.10
2023-02-28T02:03:57.864Z,0.95
2023-02-28T02:06:26.816Z,0.90
2023-02-28T02:08:53.508Z,1.10
2023-02-28T02:11:20.879Z,1.10
2023-02-28T02:14:04.863Z,1.30
2023-02-28T02:17:03.503Z,0.80
2023-02-28T02:19:55.390Z,1.00
2023-02-28T02:23:03.733Z,1.10
2023-02-28T02:25:41.917Z,1.08
2023-02-28T02:28:33.364Z,1.00
2023-02-28T02:31:12.048Z,1.00
2023-02-28T02:34:16.156Z,0.98
2023-02-28T02:37:07.950Z,1.00
2023-02-28T02:39:54.315Z,1.13
2023-02-28T02:42:31.876Z,1.20
2023-02-28T02:45:05.452Z,1.10
2023-02-28T02:47:32.710Z,1.35
2023-02-28T02:50:02.100Z,1.00
2023-02-28T02:52:44.136Z,1.00
2023-02-28T02:55:13.082Z,1.27
2023-02-28T02:57:48.622Z,0.75
2023-02-28T03:00:17.492Z,1.13
2023-02-28T03:02:44.191Z,1.10
2023-02-28T03:05:18.052Z,0.95
2023-02-28T03:07:44.706Z,1.08
2023-02-28T03:10:47.466Z,0.80
2023-02-28T03:13:21.670Z,0.80
2023-02-28T03:16:11.867Z,0.90
2023-02-28T03:18:55.776Z,0.90
2023-02-28T03:21:45.275Z,0.88
2023-02-28T03:24:24.215Z,0.80
2023-02-28T03:26:53.928Z,0.90
2023-02-28T03:29:38.886Z,0.90
2023-02-28T03:32:22.819Z,1.15
2023-02-28T03:34:56.848Z,1.10
2023-02-28T03:37:23.791Z,0.90
2023-02-28T03:39:56.631Z,0.88
2023-02-28T03:42:24.763Z,1.00
2023-02-28T03:45:02.858Z,1.00
2023-02-28T03:47:35.345Z,0.90
2023-02-28T03:50:12.188Z,0.90
2023-02-28T03:52:46.189Z,1.17
2023-02-28T03:55:14.234Z,1.10
2023-02-28T03:57:59.865Z,0.85
2023-02-28T04:00:34.580Z,1.08
2023-02-28T04:03:01.806Z,1.10
2023-02-28T04:05:28.563Z,0.95
2023-02-28T04:07:55.788Z,0.93
2023-02-28T04:10:22.639Z,1.00
2023-02-28T04:12:49.330Z,0.73
2023-02-28T04:15:16.105Z,0.95
2023-02-28T04:17:43.191Z,1.25
2023-02-28T04:20:10.694Z,1.10
2023-02-28T04:22:38.392Z,0.98
2023-02-28T04:25:07.017Z,1.10
2023-02-28T04:27:34.012Z,0.88
2023-02-28T04:30:00.823Z,1.13
2023-02-28T04:32:27.551Z,1.10
2023-02-28T04:34:54.320Z,0.90
2023-02-28T04:37:21.098Z,1.00
2023-02-28T04:39:47.745Z,1.00
2023-02-28T04:42:14.590Z,0.90
2023-02-28T04:44:41.251Z,0.82
2023-02-28T04:47:09.278Z,1.10
2023-02-28T04:49:37.119Z,1.00
2023-02-28T04:52:04.606Z,0.82
2023-02-28T04:54:31.353Z,0.90
2023-02-28T04:56:58.440Z,1.15
2023-02-28T04:59:25.118Z,1.33
2023-02-28T05:01:51.925Z,0.73
2023-02-28T05:04:18.721Z,1.15
2023-02-28T05:06:45.497Z,0.82
2023-02-28T05:09:15.163Z,0.85
2023-02-28T05:11:41.868Z,1.10
2023-02-28T05:14:13.738Z,0.90
2023-02-28T05:16:40.647Z,0.82
2023-02-28T05:19:08.286Z,0.90
2023-02-28T05:21:36.490Z,0.80
2023-02-28T05:24:05.088Z,0.80
2023-02-28T05:26:31.970Z,0.90
2023-02-28T05:28:58.677Z,0.88
2023-02-28T05:31:25.469Z,1.10
2023-02-28T05:33:52.593Z,0.70
2023-02-28T05:36:19.578Z,0.90
2023-02-28T05:38:49.600Z,0.98
2023-02-28T05:41:16.403Z,0.80
2023-02-28T05:43:43.154Z,0.95
2023-02-28T05:46:12.055Z,0.93
2023-02-28T05:48:40.330Z,0.90
2023-02-28T05:51:07.702Z,1.00
2023-02-28T05:53:34.503Z,0.90
2023-02-28T05:56:01.277Z,0.93
2023-02-28T05:58:31.628Z,0.77
2023-02-28T06:01:02.253Z,0.65
2023-02-28T06:03:28.964Z,0.90
2023-02-28T06:05:56.094Z,0.93
2023-02-28T06:08:22.806Z,0.88
2023-02-28T06:10:49.553Z,0.82
2023-02-28T06:13:16.339Z,0.98
2023-02-28T06:15:43.737Z,1.00
2023-02-28T06:18:10.459Z,0.80
2023-02-28T06:20:37.369Z,0.90
2023-02-28T06:23:04.116Z,0.90
2023-02-28T06:25:30.880Z,0.90
2023-02-28T06:27:57.696Z,0.82
2023-02-28T06:30:26.893Z,1.13
2023-02-28T06:32:54.219Z,0.85
2023-02-28T06:35:21.016Z,0.68
2023-02-28T06:37:48.161Z,0.90
2023-02-28T06:40:15.343Z,0.90
2023-02-28T06:42:43.006Z,0.90
2023-02-28T06:45:10.765Z,0.73
2023-02-28T06:47:40.910Z,0.90
2023-02-28T06:50:09.250Z,0.95
2023-02-28T06:52:38.276Z,0.60
2023-02-28T06:55:06.516Z,0.80
2023-02-28T06:57:33.954Z,0.80
2023-02-28T07:00:01.031Z,0.70
2023-02-28T07:02:28.147Z,1.00
2023-02-28T07:04:54.848Z,0.90
2023-02-28T07:07:21.654Z,0.70
2023-02-28T07:09:48.320Z,0.70
2023-02-28T07:12:16.740Z,0.80
2023-02-28T07:14:43.397Z,0.80
2023-02-28T07:17:12.914Z,0.90
2023-02-28T07:19:40.101Z,0.98
2023-02-28T07:22:07.366Z,0.73
2023-02-28T07:24:34.428Z,0.90
2023-02-28T07:27:01.864Z,0.90
2023-02-28T07:29:28.715Z,1.13
2023-02-28T07:31:55.524Z,0.90
2023-02-28T07:34:22.299Z,1.17
2023-02-28T07:36:49.065Z,0.80
2023-02-28T07:39:17.432Z,0.98
2023-02-28T07:41:44.409Z,1.13
2023-02-28T07:44:12.082Z,1.15
2023-02-28T07:46:38.921Z,0.85
2023-02-28T07:49:05.915Z,0.95
2023-02-28T07:51:32.648Z,0.80
2023-02-28T07:53:59.312Z,1.08
2023-02-28T07:56:26.038Z,0.98
2023-02-28T07:58:52.705Z,0.80
2023-02-28T08:01:20.384Z,1.35
2023-02-28T08:03:47.497Z,0.90
2023-02-28T08:06:22.378Z,0.73
2023-02-28T08:08:49.193Z,0.80
2023-02-28T08:11:17.813Z,0.90
2023-02-28T08:13:45.853Z,0.80
2023-02-28T08:16:15.710Z,1.00
2023-02-28T08:18:42.472Z,0.73
2023-02-28T08:21:09.967Z,0.93
2023-02-28T08:23:36.823Z,0.93
2023-02-28T08:26:03.718Z,0.90
2023-02-28T08:28:30.587Z,0.77
2023-02-28T08:30:57.307Z,1.08
2023-02-28T08:33:24.303Z,0.85
2023-02-28T08:35:55.272Z,1.17
2023-02-28T08:38:22.199Z,0.90
2023-02-28T08:40:48.888Z,0.80
2023-02-28T08:43:17.290Z,1.00
2023-02-28T08:45:44.117Z,1.17
2023-02-28T08:48:11.027Z,0.90
2023-02-28T08:50:37.700Z,0.90
2023-02-28T08:53:04.425Z,0.88
2023-02-28T08:55:31.077Z,0.75
2023-02-28T08:57:57.812Z,0.80
2023-02-28T09:00:24.677Z,0.88
2023-02-28T09:02:51.383Z,1.00
2023-02-28T09:05:18.266Z,0.88
2023-02-28T09:07:45.810Z,0.90
2023-02-28T09:10:12.585Z,0.80
2023-02-28T09:12:39.305Z,0.90
2023-02-28T09:15:06.748Z,1.10
2023-02-28T09:17:33.459Z,1.00
2023-02-28T09:20:00.219Z,0.90
2023-02-28T09:22:26.970Z,1.05
2023-02-28T09:24:53.651Z,0.80
2023-02-28T09:27:20.417Z,0.80
2023-02-28T09:29:48.045Z,0.80
2023-02-28T09:32:15.713Z,0.80
2023-02-28T09:34:42.708Z,0.93
2023-02-28T09:37:09.479Z,0.85
2023-02-28T09:39:36.155Z,0.57
2023-02-28T09:42:03.007Z,0.70
2023-02-28T09:44:39.888Z,0.90
2023-02-28T09:47:24.314Z,0.95
2023-02-28T09:49:50.988Z,1.00
2023-02-28T09:52:22.685Z,0.90
2023-02-28T09:54:49.455Z,0.98
2023-02-28T09:57:35.972Z,0.80
2023-02-28T10:00:19.511Z,0.80
2023-02-28T10:03:11.658Z,1.02
2023-02-28T10:05:49.872Z,0.82
2023-02-28T10:08:26.908Z,0.93
2023-02-28T10:10:56.785Z,0.93
2023-02-28T10:13:25.628Z,0.90
2023-02-28T10:16:36.677Z,0.90
2023-02-28T10:19:23.066Z,1.00
2023-02-28T10:21:59.446Z,0.90
2023-02-28T10:24:34.578Z,1.08
2023-02-28T10:27:07.369Z,1.02
2023-02-28T10:29:34.328Z,1.02
2023-02-28T10:32:02.501Z,1.00
2023-02-28T10:34:29.584Z,1.05
2023-02-28T10:36:56.668Z,0.90
2023-02-28T10:39:52.897Z,1.08
2023-02-28T10:42:20.988Z,0.90
2023-02-28T10:44:48.173Z,0.95
2023-02-28T10:47:18.757Z,1.10
2023-02-28T10:49:49.980Z,1.25
2023-02-28T10:52:39.756Z,0.93
2023-02-28T10:55:23.191Z,0.90
2023-02-28T10:57:50.508Z,0.82
2023-02-28T11:00:22.853Z,1.08
2023-02-28T11:02:49.810Z,0.90
2023-02-28T11:05:32.985Z,1.10
2023-02-28T11:08:12.137Z,1.02
2023-02-28T11:10:38.929Z,1.13
2023-02-28T11:13:05.703Z,1.00
2023-02-28T11:15:34.495Z,0.90
2023-02-28T11:18:03.473Z,1.20
2023-02-28T11:20:32.786Z,1.00
2023-02-28T11:23:00.046Z,1.02
2023-02-28T11:25:31.395Z,2.17
2023-02-28T11:28:01.891Z,2.40
2023-02-28T11:30:32.974Z,2.05
2023-02-28T11:32:59.814Z,1.77
2023-02-28T11:35:35.824Z,1.58
2023-02-28T11:38:03.268Z,2.00
2023-02-28T11:40:55.117Z,1.85
2023-02-28T11:43:40.006Z,1.77
2023-02-28T11:46:45.937Z,2.10
2023-02-28T11:49:23.663Z,1.80
2023-02-28T11:52:00.674Z,1.83
2023-02-28T11:54:36.938Z,1.50
2023-02-28T11:57:29.545Z,1.70
2023-02-28T12:00:21.084Z,1.35
2023-02-28T12:03:25.050Z,1.95
2023-02-28T12:06:14.343Z,1.60
2023-02-28T12:09:12.079Z,1.48
2023-02-28T12:11:48.227Z,1.80
2023-02-28T12:14:20.518Z,1.67
2023-02-28T12:16:56.201Z,1.50
2023-02-28T12:19:38.866Z,1.40
2023-02-28T12:22:30.205Z,1.52
2023-02-28T12:25:16.997Z,1.40
2023-02-28T12:27:46.383Z,1.60
2023-02-28T12:30:26.022Z,1.60
2023-02-28T12:33:08.377Z,1.55
2023-02-28T12:35:56.752Z,1.45
2023-02-28T12:38:27.260Z,1.90
2023-02-28T12:41:08.700Z,1.63
2023-02-28T12:43:38.518Z,1.65
2023-02-28T12:46:33.835Z,1.70
2023-02-28T12:49:05.760Z,1.50
2023-02-28T12:51:32.512Z,1.40
2023-02-28T12:54:22.137Z,1.60
2023-02-28T12:56:54.668Z,1.55
2023-02-28T12:59:21.368Z,1.70
2023-02-28T13:01:50.978Z,1.50
2023-02-28T13:04:45.883Z,1.48
2023-02-28T13:07:40.448Z,1.33
2023-02-28T13:10:10.103Z,1.30
2023-02-28T13:12:37.352Z,1.80
2023-02-28T13:15:17.789Z,1.30
2023-02-28T13:17:45.624Z,1.35
2023-02-28T13:20:18.257Z,1.50
2023-02-28T13:22:47.949Z,1.85
2023-02-28T13:25:23.901Z,1.45
2023-02-28T13:27:57.176Z,1.50
2023-02-28T13:31:00.124Z,1.30
2023-02-28T13:33:36.412Z,1.75
2023-02-28T13:36:16.627Z,1.45
2023-02-28T13:38:44.265Z,1.40
2023-02-28T13:41:45.850Z,1.55
2023-02-28T13:44:28.085Z,1.33
2023-02-28T13:46:56.661Z,1.50
2023-02-28T13:49:33.228Z,1.40
2023-02-28T13:52:20.320Z,1.85
2023-02-28T13:55:31.686Z,1.20
2023-02-28T13:58:00.838Z,1.40
2023-02-28T14:00:48.789Z,1.38
2023-02-28T14:03:27.452Z,1.52
2023-02-28T14:06:26.499Z,1.30
2023-02-28T14:09:08.762Z,1.08
2023-02-28T14:11:37.249Z,1.60
2023-02-28T14:14:04.595Z,1.30
2023-02-28T14:16:41.242Z,1.73
2023-02-28T14:19:12.648Z,1.38
2023-02-28T14:21:44.211Z,1.20
2023-02-28T14:24:29.829Z,1.30
2023-02-28T14:27:26.135Z,1.30
2023-02-28T14:30:22.290Z,1.70
2023-02-28T14:33:03.225Z,1.70
2023-02-28T14:35:41.230Z,1.67
2023-02-28T14:38:15.725Z,1.88
2023-02-28T14:40:42.705Z,2.15
2023-02-28T14:43:23.924Z,2.00
2023-02-28T14:46:01.465Z,2.28
2023-02-28T14:48:28.320Z,1.77
2023-02-28T14:50:57.549Z,1.38
2023-02-28T14:53:26.675Z,1.88
2023-02-28T14:55:53.834Z,1.67
2023-02-28T14:58:27.563Z,1.73
2023-02-28T15:00:56.275Z,2.00
2023-02-28T15:03:24.036Z,1.98
2023-02-28T15:05:59.090Z,5.38
2023-02-28T15:08:27.102Z,2.70
2023-02-28T15:11:05.113Z,3.33
2023-02-28T15:13:45.777Z,2.97
2023-02-28T15:16:15.960Z,3.03
2023-02-28T15:19:06.023Z,2.80
2023-02-28T15:21:37.110Z,2.90
2023-02-28T15:24:24.818Z,2.95
2023-02-28T15:26:56.340Z,2.90
2023-02-28T15:29:25.174Z,2.70
2023-02-28T15:31:57.793Z,3.20
2023-02-28T15:34:46.121Z,2.95
2023-02-28T15:37:34.444Z,3.00
2023-02-28T15:40:17.743Z,2.80
2023-02-28T15:42:58.687Z,3.28
2023-02-28T15:45:42.315Z,3.05
2023-02-28T15:48:27.518Z,2.83
2023-02-28T15:51:08.323Z,2.33
2023-02-28T15:53:57.673Z,2.72
2023-02-28T15:56:31.851Z,2.78
2023-02-28T15:59:03.226Z,2.15
2023-02-28T16:01:31.624Z,2.60
2023-02-28T16:04:01.300Z,3.05
2023-02-28T16:06:43.063Z,2.80
2023-02-28T16:09:12.008Z,2.67
2023-02-28T16:11:43.682Z,3.92
2023-02-28T16:14:15.866Z,5.45
2023-02-28T16:16:49.156Z,4.85
2023-02-28T16:19:18.247Z,5.20
2023-02-28T16:21:45.595Z,4.82
2023-02-28T16:24:12.511Z,4.60
2023-02-28T16:26:40.933Z,4.53
2023-02-28T16:29:07.859Z,3.53
2023-02-28T16:31:36.947Z,3.60
2023-02-28T16:34:03.815Z,3.50
2023-02-28T16:36:30.554Z,3.63
2023-02-28T16:38:57.918Z,3.55
2023-02-28T16:41:28.747Z,4.00
2023-02-28T16:43:59.748Z,2.88
2023-02-28T16:46:35.624Z,2.80
2023-02-28T16:49:02.373Z,2.92
2023-02-28T16:51:29.375Z,2.60
2023-02-28T16:53:56.255Z,2.70
2023-02-28T16:56:24.471Z,3.13
2023-02-28T16:58:51.513Z,2.60
2023-02-28T17:01:22.860Z,2.53
2023-02-28T17:03:50.492Z,2.22
2023-02-28T17:06:23.352Z,2.25
2023-02-28T17:08:51.113Z,2.38
2023-02-28T17:11:19.732Z,2.13
2023-02-28T17:13:46.644Z,2.60
2023-02-28T17:16:31.440Z,2.33
2023-02-28T17:19:03.134Z,2.50
2023-02-28T17:21:29.969Z,2.53
2023-02-28T17:23:57.016Z,2.08
2023-02-28T17:26:27.185Z,2.08
2023-02-28T17:28:56.681Z,2.28
2023-02-28T17:31:24.356Z,1.70
2023-02-28T17:33:51.227Z,1.90
2023-02-28T17:36:23.216Z,2.33
2023-02-28T17:38:50.362Z,2.13
2023-02-28T17:41:17.192Z,2.17
2023-02-28T17:43:43.977Z,2.00
2023-02-28T17:46:29.701Z,1.50
2023-02-28T17:48:56.686Z,2.10
2023-02-28T17:51:24.259Z,1.38
2023-02-28T17:53:51.984Z,2.10
2023-02-28T17:56:25.777Z,1.73
2023-02-28T17:58:53.601Z,2.70
2023-02-28T18:01:21.426Z,1.73
2023-02-28T18:03:48.585Z,2.10
2023-02-28T18:06:22.263Z,12.05
2023-02-28T18:08:50.193Z,2.00
2023-02-28T18:11:22.021Z,2.53
2023-02-28T18:13:50.636Z,2.38
2023-02-28T18:16:18.735Z,2.38
2023-02-28T18:18:45.730Z,2.65
2023-02-28T18:21:13.513Z,2.40
2023-02-28T18:23:47.721Z,2.67
2023-02-28T18:26:18.089Z,2.45
2023-02-28T18:28:45.018Z,2.45
2023-02-28T18:31:13.519Z,2.45
2023-02-28T18:33:40.443Z,2.33
2023-02-28T18:36:07.327Z,1.80
2023-02-28T18:38:33.990Z,2.05
2023-02-28T18:41:02.366Z,2.05
2023-02-28T18:43:29.747Z,2.00
2023-02-28T18:45:56.604Z,1.88
2023-02-28T18:48:24.051Z,2.80
2023-02-28T18:50:52.215Z,2.50
2023-02-28T18:53:19.108Z,2.13
2023-02-28T18:55:45.997Z,1.75
2023-02-28T18:58:16.131Z,2.13
2023-02-28T19:00:44.500Z,2.10
2023-02-28T19:03:11.852Z,2.00
2023-02-28T19:05:38.603Z,2.58
2023-02-28T19:08:05.802Z,2.15
2023-02-28T19:10:44.941Z,2.28
2023-02-28T19:13:12.036Z,1.90
2023-02-28T19:15:43.066Z,2.50
2023-02-28T19:18:18.952Z,2.03
2023-02-28T19:20:46.160Z,2.00
2023-02-28T19:23:15.232Z,2.15
2023-02-28T19:25:42.699Z,1.70
2023-02-28T19:28:09.472Z,1.98
2023-02-28T19:30:36.216Z,1.90
2023-02-28T19:33:02.891Z,1.60
2023-02-28T19:35:29.677Z,1.75
2023-02-28T19:37:58.274Z,1.80
2023-02-28T19:40:25.882Z,1.67
2023-02-28T19:42:52.747Z,1.88
2023-02-28T19:45:19.420Z,1.63
2023-02-28T19:47:46.092Z,2.40
2023-02-28T19:50:12.846Z,1.67
2023-02-28T19:55:06.513Z,1.77
2023-02-28T19:57:33.229Z,1.92
2023-02-28T20:00:00.214Z,1.67
2023-02-28T20:02:26.948Z,1.60
2023-02-28T20:04:56.104Z,1.77
2023-02-28T20:07:24.523Z,1.83
2023-02-28T20:09:51.318Z,2.10
2023-02-28T20:12:26.083Z,2.13
2023-02-28T20:14:53.214Z,2.00
2023-02-28T20:17:19.878Z,1.80
2023-02-28T20:19:46.682Z,2.00
2023-02-28T20:22:13.434Z,1.70
2023-02-28T20:24:40.152Z,2.03
2023-02-28T20:27:06.859Z,1.80
2023-02-28T20:29:34.137Z,1.70
2023-02-28T20:32:01.066Z,1.80
2023-02-28T20:34:27.947Z,1.63
2023-02-28T20:36:56.886Z,1.88
2023-02-28T20:39:23.870Z,1.55
2023-02-28T20:41:50.946Z,1.90
2023-02-28T20:44:19.296Z,1.73
2023-02-28T20:46:46.165Z,1.75
2023-02-28T20:49:13.098Z,1.70
2023-02-28T20:51:42.138Z,1.70
2023-02-28T20:54:11.206Z,1.70
2023-02-28T20:56:38.364Z,1.75
2023-02-28T20:59:05.585Z,1.77
2023-02-28T21:01:32.348Z,1.73
2023-02-28T21:04:00.989Z,1.65
2023-02-28T21:06:29.835Z,1.40
2023-02-28T21:08:57.020Z,1.50
2023-02-28T21:11:28.481Z,1.60
2023-02-28T21:13:58.431Z,1.73
2023-02-28T21:16:27.028Z,1.60
2023-02-28T21:18:55.345Z,1.70
2023-02-28T21:21:24.508Z,1.70
2023-02-28T21:23:51.918Z,1.80
2023-02-28T21:26:20.372Z,1.60
2023-02-28T21:28:51.012Z,1.50
2023-02-28T21:31:18.211Z,1.75
2023-02-28T21:33:45.258Z,1.73
2023-02-28T21:36:19.747Z,1.80
2023-02-28T21:38:47.089Z,1.92
2023-02-28T21:41:18.454Z,1.80
2023-02-28T21:43:45.663Z,1.90
2023-02-28T21:46:17.545Z,1.45
2023-02-28T21:48:44.308Z,1.60
2023-02-28T21:51:17.157Z,1.70
2023-02-28T21:53:43.984Z,1.92
2023-02-28T21:56:24.402Z,1.60
2023-02-28T21:58:51.385Z,1.45
2023-02-28T22:01:19.697Z,1.70
2023-02-28T22:03:46.808Z,1.50
2023-02-28T22:06:18.163Z,1.60
2023-02-28T22:08:46.445Z,1.52
2023-02-28T22:11:13.396Z,1.63
2023-02-28T22:13:40.141Z,1.33
2023-02-28T22:16:08.581Z,1.40
2023-02-28T22:18:35.623Z,1.67
2023-02-28T22:21:02.391Z,1.50
2023-02-28T22:23:29.971Z,1.27
2023-02-28T22:25:57.660Z,1.60
2023-02-28T22:28:25.545Z,1.55
2023-02-28T22:30:52.214Z,1.50
2023-02-28T22:33:19.165Z,1.52
2023-02-28T22:35:46.032Z,1.35
2023-02-28T22:38:12.851Z,1.42
2023-02-28T22:40:39.576Z,1.30
2023-02-28T22:43:06.548Z,1.50
2023-02-28T22:45:40.009Z,1.45
2023-02-28T22:48:07.676Z,1.33
2023-02-28T22:50:34.636Z,1.40
2023-02-28T22:53:01.626Z,1.30
2023-02-28T22:55:28.991Z,1.48
2023-02-28T22:57:56.372Z,1.48
2023-02-28T23:00:23.995Z,1.20
2023-02-28T23:02:51.012Z,1.63
2023-02-28T23:05:18.257Z,1.30
2023-02-28T23:07:45.051Z,1.30
2023-02-28T23:10:16.597Z,1.15
2023-02-28T23:12:50.283Z,1.85
2023-02-28T23:15:20.196Z,1.15
2023-02-28T23:17:47.232Z,1.20
2023-02-28T23:20:15.286Z,1.30
2023-02-28T23:22:50.430Z,1.25
2023-02-28T23:25:18.529Z,1.42
2023-02-28T23:27:45.371Z,1.20
2023-02-28T23:30:12.925Z,1.40
2023-02-28T23:32:39.803Z,1.20
2023-02-28T23:35:07.944Z,1.20
2023-02-28T23:37:35.519Z,1.38
2023-02-28T23:40:04.230Z,1.20
2023-02-28T23:42:31.041Z,1.17
2023-02-28T23:44:57.815Z,1.10
2023-02-28T23:47:24.880Z,1.10
2023-02-28T23:49:51.541Z,1.27
2023-02-28T23:52:18.199Z,1.17
2023-02-28T23:54:45.059Z,1.58
2023-02-28T23:57:11.833Z,1.40
2023-02-28T23:59:38.707Z,1.20
